createdAt,value
2022-11-03T00:02:12.778Z,70.35
2022-11-03T00:04:55.718Z,70.41
2022-11-03T00:07:38.613Z,70.25
2022-11-03T00:10:22.835Z,69.95
2022-11-03T00:13:05.886Z,69.71
2022-11-03T00:15:49.969Z,69.54
2022-11-03T00:18:32.821Z,69.47
2022-11-03T00:21:15.724Z,69.48
2022-11-03T00:23:58.897Z,69.40
2022-11-03T00:26:43.192Z,69.45
2022-11-03T00:29:26.115Z,69.34
2022-11-03T00:32:08.938Z,69.03
2022-11-03T00:34:51.850Z,69.01
2022-11-03T00:37:34.758Z,68.98
2022-11-03T00:40:17.636Z,68.70
2022-11-03T00:43:01.940Z,68.84
2022-11-03T00:45:44.817Z,68.74
2022-11-03T00:48:30.881Z,68.61
2022-11-03T00:51:16.278Z,68.53
2022-11-03T00:54:00.658Z,68.64
2022-11-03T00:56:44.388Z,68.41
2022-11-03T00:59:28.616Z,68.51
2022-11-03T01:02:11.650Z,68.05
2022-11-03T01:05:11.914Z,68.06
2022-11-03T01:07:55.247Z,68.20
2022-11-03T01:10:59.548Z,68.50
2022-11-03T01:13:42.431Z,68.35
2022-11-03T01:16:26.999Z,68.24
2022-11-03T01:19:10.551Z,67.60
2022-11-03T01:21:53.817Z,65.72
2022-11-03T01:24:36.855Z,64.11
2022-11-03T01:27:22.217Z,62.92
2022-11-03T01:30:05.582Z,62.39
2022-11-03T01:32:49.816Z,61.68
2022-11-03T01:35:32.703Z,60.49
2022-11-03T01:38:15.528Z,60.35
2022-11-03T01:40:58.433Z,60.10
2022-11-03T01:43:42.268Z,60.37
2022-11-03T01:46:28.954Z,60.31
2022-11-03T01:49:19.782Z,59.87
2022-11-03T01:52:08.618Z,59.88
2022-11-03T01:54:57.833Z,59.72
2022-11-03T01:57:44.439Z,59.78
2022-11-03T02:00:27.505Z,59.84
2022-11-03T02:03:11.133Z,59.83
2022-11-03T02:05:57.293Z,59.70
2022-11-03T02:08:45.184Z,59.50
2022-11-03T02:11:45.878Z,59.60
2022-11-03T02:14:28.700Z,59.15
2022-11-03T02:17:15.062Z,58.95
2022-11-03T02:20:01.156Z,58.63
2022-11-03T02:23:15.927Z,57.32
2022-11-03T02:26:02.092Z,57.05
2022-11-03T02:28:45.158Z,56.84
2022-11-03T02:31:33.973Z,55.96
2022-11-03T02:34:21.405Z,55.76
2022-11-03T02:37:09.608Z,55.83
2022-11-03T02:39:57.892Z,55.40
2022-11-03T02:42:45.806Z,55.46
2022-11-03T02:45:29.587Z,55.62
2022-11-03T02:48:12.805Z,55.85
2022-11-03T02:50:55.909Z,55.06
2022-11-03T02:53:44.297Z,54.77
2022-11-03T02:56:27.188Z,55.43
2022-11-03T02:59:15.453Z,55.75
2022-11-03T03:02:05.117Z,56.43
2022-11-03T03:04:54.743Z,56.30
2022-11-03T03:07:41.011Z,55.87
2022-11-03T03:10:27.570Z,55.80
2022-11-03T03:13:14.561Z,55.45
2022-11-03T03:16:09.197Z,54.50
2022-11-03T03:18:58.134Z,54.91
2022-11-03T03:21:45.475Z,54.68
2022-11-03T03:24:38.376Z,55.02
2022-11-03T03:27:24.903Z,55.17
2022-11-03T03:30:09.307Z,55.29
2022-11-03T03:32:55.499Z,55.38
2022-11-03T03:35:42.179Z,55.77
2022-11-03T03:38:29.462Z,55.99
2022-11-03T03:41:21.799Z,56.11
2022-11-03T03:44:07.784Z,56.33
2022-11-03T03:46:56.326Z,56.73
2022-11-03T03:49:40.928Z,57.04
2022-11-03T03:52:23.704Z,56.36
2022-11-03T03:55:13.739Z,56.79
2022-11-03T03:57:59.526Z,56.89
2022-11-03T04:00:44.184Z,56.72
2022-11-03T04:03:29.269Z,56.73
2022-11-03T04:06:13.535Z,56.47
2022-11-03T04:08:56.387Z,56.11
2022-11-03T04:11:56.580Z,56.07
2022-11-03T04:14:57.089Z,56.32
2022-11-03T04:18:00.954Z,56.56
2022-11-03T04:21:12.524Z,56.53
2022-11-03T04:23:56.815Z,56.65
2022-11-03T04:26:39.671Z,56.98
2022-11-03T04:29:22.606Z,56.84
2022-11-03T04:32:15.112Z,56.89
2022-11-03T04:34:59.367Z,56.91
2022-11-03T04:37:47.303Z,57.18
2022-11-03T04:40:31.846Z,57.28
2022-11-03T04:43:16.264Z,57.34
2022-11-03T04:45:59.756Z,57.44
2022-11-03T04:48:43.259Z,57.28
2022-11-03T04:51:29.182Z,57.55
2022-11-03T04:54:16.509Z,57.70
2022-11-03T04:57:01.141Z,57.62
2022-11-03T04:59:44.933Z,57.91
2022-11-03T05:02:31.709Z,57.94
2022-11-03T05:05:18.134Z,57.98
2022-11-03T05:08:00.928Z,58.09
2022-11-03T05:10:43.841Z,57.92
2022-11-03T05:13:29.895Z,58.16
2022-11-03T05:16:12.781Z,58.33
2022-11-03T05:18:56.363Z,58.51
2022-11-03T05:21:39.532Z,58.53
2022-11-03T05:24:25.891Z,58.50
2022-11-03T05:27:16.788Z,58.69
2022-11-03T05:30:01.433Z,58.60
2022-11-03T05:32:44.201Z,58.65
2022-11-03T05:35:27.108Z,58.57
2022-11-03T05:38:15.842Z,58.60
2022-11-03T05:40:59.776Z,58.75
2022-11-03T05:43:42.670Z,58.97
2022-11-03T05:46:30.196Z,59.16
2022-11-03T05:49:13.054Z,59.25
2022-11-03T05:51:56.209Z,59.42
2022-11-03T05:54:39.104Z,59.50
2022-11-03T05:57:22.155Z,59.57
2022-11-03T06:00:09.508Z,59.69
2022-11-03T06:02:56.162Z,59.41
2022-11-03T06:05:38.964Z,59.43
2022-11-03T06:11:27.246Z,59.41
2022-11-03T06:14:18.676Z,59.88
2022-11-03T06:17:07.283Z,59.76
2022-11-03T06:19:54.614Z,59.83
2022-11-03T06:22:38.858Z,59.78
2022-11-03T06:25:29.375Z,59.78
2022-11-03T06:28:18.351Z,60.00
2022-11-03T06:31:01.378Z,60.05
2022-11-03T06:33:44.248Z,59.93
2022-11-03T06:36:33.250Z,60.01
2022-11-03T06:39:23.377Z,60.32
2022-11-03T06:42:14.205Z,60.27
2022-11-03T06:44:57.072Z,60.38
2022-11-03T06:47:41.928Z,60.41
2022-11-03T06:50:29.323Z,60.64
2022-11-03T06:53:19.068Z,60.86
2022-11-03T06:56:02.658Z,60.89
2022-11-03T06:58:48.352Z,60.83
2022-11-03T07:01:33.388Z,60.95
2022-11-03T07:04:20.393Z,61.01
2022-11-03T07:07:04.362Z,61.08
2022-11-03T07:09:48.652Z,61.06
2022-11-03T07:12:31.532Z,61.44
2022-11-03T07:15:23.971Z,61.56
2022-11-03T07:18:16.861Z,61.34
2022-11-03T07:21:02.315Z,61.55
2022-11-03T07:23:47.193Z,61.68
2022-11-03T07:26:34.299Z,61.92
2022-11-03T07:29:22.285Z,61.66
2022-11-03T07:32:12.624Z,61.85
2022-11-03T07:35:02.833Z,61.87
2022-11-03T07:37:46.798Z,61.61
2022-11-03T07:40:33.187Z,61.68
2022-11-03T07:43:20.948Z,61.67
2022-11-03T07:46:05.169Z,61.79
2022-11-03T07:48:49.367Z,61.85
2022-11-03T07:51:34.236Z,61.72
2022-11-03T07:54:20.193Z,62.04
2022-11-03T07:57:12.521Z,62.17
2022-11-03T07:59:59.973Z,61.99
2022-11-03T08:02:49.685Z,62.08
2022-11-03T08:05:32.581Z,61.85
2022-11-03T08:08:15.467Z,62.00
2022-11-03T08:10:58.273Z,62.05
2022-11-03T08:13:42.310Z,61.69
2022-11-03T08:16:26.726Z,61.57
2022-11-03T08:19:10.113Z,61.33
2022-11-03T08:21:53.081Z,61.10
2022-11-03T08:24:36.068Z,61.08
2022-11-03T08:27:20.106Z,60.86
2022-11-03T08:30:02.915Z,60.45
2022-11-03T08:32:47.159Z,60.64
2022-11-03T08:35:33.112Z,60.43
2022-11-03T08:38:17.046Z,60.47
2022-11-03T08:40:59.870Z,60.49
2022-11-03T08:43:42.883Z,59.97
2022-11-03T08:46:25.730Z,59.81
2022-11-03T08:49:09.996Z,59.85
2022-11-03T08:51:53.142Z,59.29
2022-11-03T08:54:36.032Z,59.46
2022-11-03T08:57:19.006Z,59.07
2022-11-03T09:00:01.880Z,59.22
2022-11-03T09:02:44.918Z,59.00
2022-11-03T09:05:29.323Z,58.50
2022-11-03T09:11:15.065Z,58.14
2022-11-03T09:13:58.223Z,58.11
2022-11-03T09:16:41.092Z,57.72
2022-11-03T09:19:23.960Z,57.68
2022-11-03T09:22:08.113Z,57.25
2022-11-03T09:24:51.013Z,57.03
2022-11-03T09:27:33.999Z,56.78
2022-11-03T09:30:17.749Z,56.34
2022-11-03T09:33:00.729Z,56.41
2022-11-03T09:35:43.613Z,56.52
2022-11-03T09:38:27.882Z,56.03
2022-11-03T09:41:28.205Z,56.01
2022-11-03T09:44:18.554Z,54.75
2022-11-03T09:47:01.867Z,54.89
2022-11-03T09:49:44.773Z,55.15
2022-11-03T09:52:27.782Z,55.27
2022-11-03T09:55:16.946Z,54.92
2022-11-03T09:58:04.680Z,54.47
2022-11-03T10:00:47.927Z,54.58
2022-11-03T10:03:31.393Z,54.16
2022-11-03T10:06:16.149Z,53.75
2022-11-03T10:08:58.961Z,51.93
2022-11-03T10:11:43.649Z,53.93
2022-11-03T10:14:26.699Z,53.69
2022-11-03T10:17:16.964Z,52.91
2022-11-03T10:20:00.001Z,53.15
2022-11-03T10:22:44.377Z,53.03
2022-11-03T10:25:35.689Z,52.53
2022-11-03T10:28:22.328Z,52.01
2022-11-03T10:31:11.782Z,51.39
2022-11-03T10:33:57.058Z,51.42
2022-11-03T10:36:39.954Z,51.33
2022-11-03T10:39:30.993Z,51.14
2022-11-03T10:42:19.798Z,51.62
2022-11-03T10:45:17.923Z,50.95
2022-11-03T10:48:02.263Z,50.96
2022-11-03T10:50:45.171Z,50.90
2022-11-03T10:53:28.033Z,50.45
2022-11-03T10:56:11.754Z,49.99
2022-11-03T10:58:55.844Z,49.73
2022-11-03T11:01:40.321Z,49.69
2022-11-03T11:04:23.352Z,49.36
2022-11-03T11:07:19.105Z,49.18
2022-11-03T11:10:08.893Z,49.13
2022-11-03T11:13:06.565Z,47.43
2022-11-03T11:15:51.490Z,49.04
2022-11-03T11:19:11.809Z,48.79
2022-11-03T11:22:23.530Z,48.11
2022-11-03T11:25:06.684Z,49.11
2022-11-03T11:28:12.636Z,48.65
2022-11-03T11:30:59.457Z,48.71
2022-11-03T11:33:42.311Z,48.69
2022-11-03T11:36:26.297Z,48.01
2022-11-03T11:39:35.916Z,47.33
2022-11-03T11:42:20.256Z,47.68
2022-11-03T11:45:04.582Z,47.88
2022-11-03T11:47:51.232Z,47.54
2022-11-03T11:50:34.435Z,47.92
2022-11-03T11:53:29.013Z,47.28
2022-11-03T11:56:17.099Z,46.53
2022-11-03T11:59:00.285Z,47.61
2022-11-03T12:01:43.869Z,47.23
2022-11-03T12:04:31.407Z,46.77
2022-11-03T12:07:15.323Z,46.57
2022-11-03T12:10:08.545Z,46.25
2022-11-03T12:12:53.447Z,46.81
2022-11-03T12:15:56.173Z,45.01
2022-11-03T12:18:44.756Z,46.46
2022-11-03T12:21:47.233Z,44.86
2022-11-03T12:24:48.022Z,45.27
2022-11-03T12:27:44.271Z,45.07
2022-11-03T12:30:28.586Z,45.69
2022-11-03T12:33:11.480Z,45.96
2022-11-03T12:35:54.384Z,45.54
2022-11-03T12:38:37.311Z,45.33
2022-11-03T12:41:24.635Z,45.05
2022-11-03T12:44:07.574Z,45.13
2022-11-03T12:46:51.881Z,44.62
2022-11-03T12:49:34.752Z,44.08
2022-11-03T12:52:17.671Z,43.90
2022-11-03T12:55:00.502Z,44.14
2022-11-03T12:57:45.916Z,44.25
2022-11-03T13:00:29.059Z,43.96
2022-11-03T13:03:13.310Z,43.97
2022-11-03T13:05:56.573Z,43.75
2022-11-03T13:08:39.481Z,43.94
2022-11-03T13:11:39.865Z,43.74
2022-11-03T13:14:22.784Z,44.14
2022-11-03T13:17:05.684Z,44.15
2022-11-03T13:19:54.504Z,44.55
2022-11-03T13:22:38.581Z,44.58
2022-11-03T13:25:24.309Z,44.88
2022-11-03T13:28:07.606Z,45.39
2022-11-03T13:30:50.501Z,45.05
2022-11-03T13:33:33.390Z,45.53
2022-11-03T13:36:17.663Z,45.49
2022-11-03T13:39:00.835Z,45.41
2022-11-03T13:41:43.693Z,45.35
2022-11-03T13:44:26.572Z,45.86
2022-11-03T13:47:11.714Z,46.14
2022-11-03T13:56:06.811Z,45.91
2022-11-03T14:04:57.830Z,46.59
2022-11-03T14:07:40.857Z,46.38
2022-11-03T14:10:25.009Z,46.70
2022-11-03T14:13:08.583Z,46.92
2022-11-03T14:15:51.690Z,46.49
2022-11-03T14:18:34.576Z,46.84
2022-11-03T14:21:17.395Z,46.94
2022-11-03T14:24:00.284Z,47.03
2022-11-03T14:26:44.732Z,47.48
2022-11-03T14:29:28.103Z,47.77
2022-11-03T14:32:11.270Z,47.77
2022-11-03T14:34:54.220Z,48.10
2022-11-03T14:37:37.231Z,47.94
2022-11-03T14:40:34.023Z,48.43
2022-11-03T14:43:18.226Z,48.45
2022-11-03T14:46:01.330Z,48.36
2022-11-03T14:48:44.364Z,48.81
2022-11-03T14:51:27.169Z,49.06
2022-11-03T14:54:10.054Z,49.25
2022-11-03T14:56:53.875Z,49.42
2022-11-03T14:59:38.136Z,49.67
2022-11-03T15:02:21.090Z,49.67
2022-11-03T15:05:03.975Z,49.76
2022-11-03T15:07:46.847Z,49.88
2022-11-03T15:10:29.705Z,49.70
2022-11-03T15:13:12.620Z,49.88
2022-11-03T15:15:56.847Z,49.91
2022-11-03T15:18:39.706Z,50.36
2022-11-03T15:21:22.662Z,50.47
2022-11-03T15:27:08.762Z,50.71
2022-11-03T15:29:51.554Z,50.93
2022-11-03T15:32:36.586Z,51.26
2022-11-03T15:35:20.083Z,51.38
2022-11-03T15:38:03.040Z,51.15
2022-11-03T15:40:45.881Z,51.40
2022-11-03T15:43:28.984Z,51.59
2022-11-03T15:46:13.763Z,51.61
2022-11-03T15:48:58.219Z,51.58
2022-11-03T15:51:41.177Z,51.59
2022-11-03T15:54:24.085Z,51.82
2022-11-03T15:57:06.968Z,51.95
2022-11-03T15:59:51.553Z,51.90
2022-11-03T16:02:41.444Z,52.09
2022-11-03T16:05:26.142Z,52.06
2022-11-03T16:08:09.446Z,52.14
2022-11-03T16:10:57.610Z,52.23
2022-11-03T16:13:40.970Z,52.14
2022-11-03T16:16:23.829Z,52.26
2022-11-03T16:19:06.636Z,52.44
2022-11-03T16:21:51.680Z,52.39
2022-11-03T16:24:35.395Z,52.48
2022-11-03T16:27:18.673Z,52.46
2022-11-03T16:30:02.760Z,52.66
2022-11-03T16:32:45.812Z,52.99
2022-11-03T16:35:29.628Z,53.02
2022-11-03T16:38:15.419Z,53.12
2022-11-03T16:40:58.517Z,53.33
2022-11-03T16:43:41.403Z,53.35
2022-11-03T16:46:24.277Z,53.43
2022-11-03T16:49:07.167Z,53.53
2022-11-03T16:51:50.102Z,53.47
2022-11-03T16:54:34.363Z,53.52
2022-11-03T16:57:17.261Z,53.57
2022-11-03T17:00:00.562Z,53.65
2022-11-03T17:02:44.302Z,53.65
2022-11-03T17:05:27.166Z,53.49
2022-11-03T17:08:25.836Z,53.57
2022-11-03T17:11:14.216Z,53.39
2022-11-03T17:13:57.179Z,53.61
2022-11-03T17:16:42.464Z,53.88
2022-11-03T17:19:25.353Z,53.85
2022-11-03T17:22:08.232Z,54.17
2022-11-03T17:24:51.295Z,54.08
2022-11-03T17:27:41.546Z,54.07
2022-11-03T17:30:26.443Z,54.10
2022-11-03T17:33:14.212Z,54.04
2022-11-03T17:35:57.128Z,54.14
2022-11-03T17:38:40.107Z,54.24
2022-11-03T17:41:22.984Z,54.19
2022-11-03T17:44:11.154Z,54.41
2022-11-03T17:46:54.664Z,54.21
2022-11-03T17:49:37.686Z,54.18
2022-11-03T17:52:26.771Z,54.05
2022-11-03T17:55:18.043Z,54.15
2022-11-03T17:58:02.777Z,54.39
2022-11-03T18:00:48.180Z,54.33
2022-11-03T18:03:31.433Z,53.93
2022-11-03T18:06:19.169Z,54.10
2022-11-03T18:09:02.419Z,53.92
2022-11-03T18:12:03.173Z,53.86
2022-11-03T18:14:46.014Z,53.76
2022-11-03T18:17:30.472Z,53.74
2022-11-03T18:20:16.969Z,53.77
2022-11-03T18:23:12.963Z,53.64
2022-11-03T18:25:55.976Z,53.68
2022-11-03T18:28:38.811Z,53.75
2022-11-03T18:31:24.473Z,53.62
2022-11-03T18:34:15.379Z,53.45
2022-11-03T18:36:58.557Z,53.41
2022-11-03T18:39:41.481Z,53.60
2022-11-03T18:42:24.386Z,53.62
2022-11-03T18:45:12.206Z,53.42
2022-11-03T18:47:55.096Z,53.48
2022-11-03T18:50:40.311Z,53.59
2022-11-03T18:53:25.567Z,53.78
2022-11-03T18:56:11.984Z,53.92
2022-11-03T18:58:56.603Z,53.89
2022-11-03T19:01:39.954Z,54.07
2022-11-03T19:04:23.189Z,54.10
2022-11-03T19:07:08.580Z,54.16
2022-11-03T19:09:51.959Z,54.28
2022-11-03T19:12:38.984Z,54.45
2022-11-03T19:15:24.801Z,54.34
2022-11-03T19:18:07.971Z,54.46
2022-11-03T19:20:51.117Z,54.49
2022-11-03T19:23:37.036Z,54.53
2022-11-03T19:26:23.352Z,54.58
2022-11-03T19:29:12.508Z,54.70
2022-11-03T19:31:55.843Z,54.72
2022-11-03T19:34:38.900Z,54.84
2022-11-03T19:37:21.834Z,54.93
2022-11-03T19:40:09.269Z,55.13
2022-11-03T19:42:51.497Z,54.96
2022-11-03T19:45:34.360Z,55.11
2022-11-03T19:48:25.292Z,55.06
2022-11-03T19:51:08.742Z,55.25
2022-11-03T19:53:52.019Z,55.06
2022-11-03T19:56:36.297Z,55.17
2022-11-03T19:59:19.460Z,55.22
2022-11-03T20:02:02.441Z,55.37
2022-11-03T20:04:47.353Z,55.31
2022-11-03T20:07:31.863Z,55.32
2022-11-03T20:10:18.147Z,55.33
2022-11-03T20:13:02.719Z,55.46
2022-11-03T20:15:45.825Z,55.38
2022-11-03T20:18:28.702Z,55.57
2022-11-03T20:21:17.102Z,55.50
2022-11-03T20:24:00.036Z,55.34
2022-11-03T20:26:43.058Z,55.60
2022-11-03T20:29:32.116Z,55.55
2022-11-03T20:32:17.695Z,55.57
2022-11-03T20:35:00.605Z,55.54
2022-11-03T20:37:45.782Z,55.47
2022-11-03T20:40:32.325Z,55.41
2022-11-03T20:43:24.335Z,55.41
2022-11-03T20:46:21.561Z,55.61
2022-11-03T20:49:04.508Z,55.49
2022-11-03T20:51:47.703Z,55.45
2022-11-03T20:54:31.265Z,55.53
2022-11-03T20:57:14.447Z,55.45
2022-11-03T20:59:57.438Z,55.50
2022-11-03T21:02:42.273Z,55.41
2022-11-03T21:05:26.028Z,55.45
2022-11-03T21:08:11.289Z,55.40
2022-11-03T21:10:54.166Z,55.29
2022-11-03T21:13:37.102Z,55.24
2022-11-03T21:16:37.675Z,55.44
2022-11-03T21:19:41.432Z,55.13
2022-11-03T21:25:29.734Z,55.02
2022-11-03T21:28:12.589Z,55.02
2022-11-03T21:30:57.067Z,54.99
2022-11-03T21:33:39.904Z,54.79
2022-11-03T21:36:24.260Z,54.69
2022-11-03T21:39:07.171Z,54.60
2022-11-03T21:42:07.662Z,54.75
2022-11-03T21:44:51.195Z,54.57
2022-11-03T21:47:34.128Z,54.78
2022-11-03T21:50:16.186Z,54.58
2022-11-03T21:53:00.423Z,54.62
2022-11-03T21:55:43.415Z,54.59
2022-11-03T21:58:26.251Z,54.53
2022-11-03T22:01:09.961Z,54.57
2022-11-03T22:03:52.881Z,54.43
2022-11-03T22:06:35.736Z,54.19
2022-11-03T22:09:20.465Z,54.44
2022-11-03T22:12:03.101Z,54.04
2022-11-03T22:15:03.534Z,54.32
2022-11-03T22:17:46.516Z,54.27
2022-11-03T22:20:47.070Z,54.37
2022-11-03T22:23:47.616Z,54.33
2022-11-03T22:26:49.202Z,54.35
2022-11-03T22:29:49.598Z,54.44
2022-11-03T22:32:32.581Z,54.33
2022-11-03T22:35:33.143Z,54.05
2022-11-03T22:38:18.184Z,54.15
2022-11-03T22:41:18.510Z,53.98
2022-11-03T22:44:20.232Z,53.97
2022-11-03T22:47:03.440Z,53.83
2022-11-03T22:49:46.460Z,53.92
2022-11-03T22:52:29.299Z,53.87
2022-11-03T22:55:12.173Z,53.72
2022-11-03T22:57:55.012Z,53.75
2022-11-03T23:00:40.965Z,53.66
2022-11-03T23:03:23.832Z,53.58
2022-11-03T23:06:08.794Z,53.50
2022-11-03T23:08:54.275Z,53.27
2022-11-03T23:11:37.186Z,53.15
2022-11-03T23:14:21.083Z,53.03
2022-11-03T23:17:05.288Z,53.12
2022-11-03T23:20:05.616Z,53.08
2022-11-03T23:22:48.530Z,53.12
2022-11-03T23:25:32.005Z,53.31
2022-11-03T23:28:14.792Z,53.22
2022-11-03T23:30:57.605Z,53.11
2022-11-03T23:33:41.836Z,53.21
2022-11-03T23:36:24.744Z,53.17
2022-11-03T23:39:07.741Z,53.06
2022-11-03T23:41:51.440Z,52.97
2022-11-03T23:44:55.996Z,53.13
2022-11-03T23:47:56.469Z,52.96
2022-11-03T23:50:40.972Z,52.86
2022-11-03T23:53:23.751Z,52.83
2022-11-03T23:56:24.934Z,52.74
2022-11-03T23:59:08.971Z,52.91
